sensor_id;sensor_type;location;lat;lon;timestamp;pressure;altitude;pressure_sealevel;temperature;humidity
57038;BME280;59942;49.304;8.256;2023-11-21T00:01:16;99760.13;;;8.38;100.00
57038;BME280;59942;49.304;8.256;2023-11-21T00:03:43;99748.13;;;8.16;100.00
57038;BME280;59942;49.304;8.256;2023-11-21T00:06:25;99756.63;;;8.20;100.00
57038;BME280;59942;49.304;8.256;2023-11-21T00:08:56;99744.53;;;8.20;100.00
57038;BME280;59942;49.304;8.256;2023-11-21T00:11:23;99748.38;;;8.30;100.00
57038;BME280;59942;49.304;8.256;2023-11-21T00:13:54;99758.09;;;8.25;100.00
57038;BME280;59942;49.304;8.256;2023-11-21T00:16:23;99751.09;;;8.27;100.00
57038;BME280;59942;49.304;8.256;2023-11-21T00:18:54;99748.66;;;8.24;100.00
57038;BME280;59942;49.304;8.256;2023-11-21T00:21:21;99754.72;;;8.23;100.00
57038;BME280;59942;49.304;8.256;2023-11-21T00:23:49;99749.69;;;8.20;100.00
57038;BME280;59942;49.304;8.256;2023-11-21T00:26:16;99736.66;;;8.23;100.00
57038;BME280;59942;49.304;8.256;2023-11-21T00:28:42;99744.97;;;8.30;100.00
57038;BME280;59942;49.304;8.256;2023-11-21T00:31:09;99749.25;;;8.31;100.00
57038;BME280;59942;49.304;8.256;2023-11-21T00:33:36;99740.72;;;8.29;100.00
57038;BME280;59942;49.304;8.256;2023-11-21T00:36:03;99740.00;;;8.25;100.00
57038;BME280;59942;49.304;8.256;2023-11-21T00:38:29;99719.31;;;8.06;100.00
57038;BME280;59942;49.304;8.256;2023-11-21T00:40:56;99736.16;;;8.15;100.00
57038;BME280;59942;49.304;8.256;2023-11-21T00:43:22;99738.41;;;8.23;100.00
57038;BME280;59942;49.304;8.256;2023-11-21T00:45:51;99736.66;;;8.23;100.00
57038;BME280;59942;49.304;8.256;2023-11-21T00:48:18;99735.75;;;8.24;100.00
57038;BME280;59942;49.304;8.256;2023-11-21T00:50:47;99740.28;;;8.19;100.00
57038;BME280;59942;49.304;8.256;2023-11-21T00:53:13;99742.28;;;8.12;100.00
57038;BME280;59942;49.304;8.256;2023-11-21T00:55:43;99736.03;;;8.18;100.00
57038;BME280;59942;49.304;8.256;2023-11-21T00:58:11;99736.47;;;8.28;100.00
57038;BME280;59942;49.304;8.256;2023-11-21T01:00:37;99734.19;;;8.20;100.00
57038;BME280;59942;49.304;8.256;2023-11-21T01:03:06;99732.59;;;8.17;100.00
57038;BME280;59942;49.304;8.256;2023-11-21T01:05:34;99725.69;;;8.18;100.00
57038;BME280;59942;49.304;8.256;2023-11-21T01:08:00;99728.13;;;8.21;100.00
57038;BME280;59942;49.304;8.256;2023-11-21T01:10:27;99735.53;;;8.29;100.00
57038;BME280;59942;49.304;8.256;2023-11-21T01:12:56;99729.81;;;8.22;100.00
57038;BME280;59942;49.304;8.256;2023-11-21T01:15:24;99735.75;;;8.24;100.00
57038;BME280;59942;49.304;8.256;2023-11-21T01:17:54;99734.03;;;8.25;100.00
57038;BME280;59942;49.304;8.256;2023-11-21T01:20:23;99736.66;;;8.23;100.00
57038;BME280;59942;49.304;8.256;2023-11-21T01:22:50;99735.75;;;8.24;100.00
57038;BME280;59942;49.304;8.256;2023-11-21T01:25:17;99730.78;;;8.20;100.00
57038;BME280;59942;49.304;8.256;2023-11-21T01:27:43;99733.81;;;8.29;100.00
57038;BME280;59942;49.304;8.256;2023-11-21T01:30:13;99720.66;;;8.15;100.00
57038;BME280;59942;49.304;8.256;2023-11-21T01:32:41;99737.44;;;8.25;100.00
57038;BME280;59942;49.304;8.256;2023-11-21T01:35:08;99727.44;;;8.17;100.00
57038;BME280;59942;49.304;8.256;2023-11-21T01:37:37;99745.94;;;8.27;100.00
57038;BME280;59942;49.304;8.256;2023-11-21T01:40:04;99745.81;;;8.30;100.00
57038;BME280;59942;49.304;8.256;2023-11-21T01:42:37;99752.28;;;8.20;100.00
57038;BME280;59942;49.304;8.256;2023-11-21T01:45:06;99746.41;;;8.16;100.00
57038;BME280;59942;49.304;8.256;2023-11-21T01:47:33;99752.28;;;8.20;100.00
57038;BME280;59942;49.304;8.256;2023-11-21T01:50:03;99756.41;;;8.24;100.00
57038;BME280;59942;49.304;8.256;2023-11-21T01:52:37;99749.75;;;8.18;100.00
57038;BME280;59942;49.304;8.256;2023-11-21T01:55:07;99733.44;;;8.18;100.00
57038;BME280;59942;49.304;8.256;2023-11-21T01:57:36;99743.34;;;8.27;100.00
57038;BME280;59942;49.304;8.256;2023-11-21T02:00:04;99743.19;;;8.11;100.00
57038;BME280;59942;49.304;8.256;2023-11-21T02:02:48;99747.75;;;8.25;100.00
57038;BME280;59942;49.304;8.256;2023-11-21T02:05:18;99697.50;;;7.93;100.00
57038;BME280;59942;49.304;8.256;2023-11-21T02:07:48;99748.72;;;8.23;100.00
57038;BME280;59942;49.304;8.256;2023-11-21T02:10:15;99742.59;;;8.25;100.00
57038;BME280;59942;49.304;8.256;2023-11-21T02:12:43;99742.66;;;8.24;100.00
57038;BME280;59942;49.304;8.256;2023-11-21T02:15:12;99753.28;;;8.17;100.00
57038;BME280;59942;49.304;8.256;2023-11-21T02:17:44;99746.50;;;8.15;100.00
57038;BME280;59942;49.304;8.256;2023-11-21T02:20:13;99753.28;;;8.17;100.00
57038;BME280;59942;49.304;8.256;2023-11-21T02:25:18;99748.53;;;8.27;100.00
57038;BME280;59942;49.304;8.256;2023-11-21T02:27:47;99746.94;;;8.25;100.00
57038;BME280;59942;49.304;8.256;2023-11-21T02:30:17;99751.75;;;8.32;100.00
57038;BME280;59942;49.304;8.256;2023-11-21T02:32:47;99751.97;;;8.28;100.00
57038;BME280;59942;49.304;8.256;2023-11-21T02:35:15;99751.63;;;8.35;100.00
57038;BME280;59942;49.304;8.256;2023-11-21T02:37:44;99749.38;;;8.28;100.00
57038;BME280;59942;49.304;8.256;2023-11-21T02:40:11;99744.09;;;8.31;100.00
57038;BME280;59942;49.304;8.256;2023-11-21T02:42:44;99747.97;;;8.21;100.00
57038;BME280;59942;49.304;8.256;2023-11-21T02:45:11;99752.34;;;8.18;100.00
57038;BME280;59942;49.304;8.256;2023-11-21T02:47:43;99749.75;;;8.18;100.00
57038;BME280;59942;49.304;8.256;2023-11-21T02:50:10;99739.94;;;8.27;100.00
57038;BME280;59942;49.304;8.256;2023-11-21T02:52:37;99739.44;;;8.18;100.00
57038;BME280;59942;49.304;8.256;2023-11-21T02:55:05;99745.81;;;8.30;100.00
57038;BME280;59942;49.304;8.256;2023-11-21T02:57:33;99746.34;;;8.18;100.00
57038;BME280;59942;49.304;8.256;2023-11-21T03:00:00;99756.47;;;8.23;100.00
57038;BME280;59942;49.304;8.256;2023-11-21T03:02:26;99751.75;;;8.32;100.00
57038;BME280;59942;49.304;8.256;2023-11-21T03:04:53;99751.78;;;8.12;100.00
57038;BME280;59942;49.304;8.256;2023-11-21T03:07:19;99748.47;;;8.29;100.00
57038;BME280;59942;49.304;8.256;2023-11-21T03:09:46;99753.97;;;8.21;100.00
57038;BME280;59942;49.304;8.256;2023-11-21T03:12:13;99754.03;;;8.20;100.00
57038;BME280;59942;49.304;8.256;2023-11-21T03:14:40;99755.50;;;8.25;100.00
57038;BME280;59942;49.304;8.256;2023-11-21T03:17:09;99752.59;;;8.33;100.00
57038;BME280;59942;49.304;8.256;2023-11-21T03:19:37;99742.81;;;8.21;100.00
57038;BME280;59942;49.304;8.256;2023-11-21T03:22:04;99755.91;;;8.37;100.00
57038;BME280;59942;49.304;8.256;2023-11-21T03:24:30;99756.03;;;8.33;100.00
57038;BME280;59942;49.304;8.256;2023-11-21T03:26:59;99749.53;;;8.25;100.00
57038;BME280;59942;49.304;8.256;2023-11-21T03:29:26;99747.69;;;8.27;100.00
57038;BME280;59942;49.304;8.256;2023-11-21T03:31:52;99749.25;;;8.31;100.00
57038;BME280;59942;49.304;8.256;2023-11-21T03:34:27;99751.59;;;8.16;100.00
57038;BME280;59942;49.304;8.256;2023-11-21T03:36:54;99751.88;;;8.09;100.00
57038;BME280;59942;49.304;8.256;2023-11-21T03:39:23;99755.66;;;8.22;100.00
57038;BME280;59942;49.304;8.256;2023-11-21T03:41:52;99754.94;;;8.18;100.00
57038;BME280;59942;49.304;8.256;2023-11-21T03:44:19;99761.38;;;8.29;100.00
57038;BME280;59942;49.304;8.256;2023-11-21T03:46:48;99758.78;;;8.29;100.00
57038;BME280;59942;49.304;8.256;2023-11-21T03:49:17;99757.81;;;8.31;100.00
57038;BME280;59942;49.304;8.256;2023-11-21T03:51:45;99756.84;;;8.34;100.00
57038;BME280;59942;49.304;8.256;2023-11-21T03:54:14;99754.56;;;8.28;100.00
57038;BME280;59942;49.304;8.256;2023-11-21T03:56:41;99761.38;;;8.29;100.00
57038;BME280;59942;49.304;8.256;2023-11-21T03:59:07;99762.44;;;8.25;100.00
57038;BME280;59942;49.304;8.256;2023-11-21T04:01:36;99732.91;;;8.10;100.00
57038;BME280;59942;49.304;8.256;2023-11-21T04:04:03;99755.50;;;8.25;100.00
57038;BME280;59942;49.304;8.256;2023-11-21T04:06:33;99763.13;;;8.49;100.00
57038;BME280;59942;49.304;8.256;2023-11-21T04:08:59;99762.47;;;8.44;100.00
57038;BME280;59942;49.304;8.256;2023-11-21T04:11:26;99773.03;;;8.38;100.00
57038;BME280;59942;49.304;8.256;2023-11-21T04:13:54;99771.25;;;8.40;100.00
57038;BME280;59942;49.304;8.256;2023-11-21T04:16:21;99766.84;;;8.42;100.00
57038;BME280;59942;49.304;8.256;2023-11-21T04:18:48;99774.88;;;8.35;100.00
57038;BME280;59942;49.304;8.256;2023-11-21T04:21:15;99776.09;;;8.47;100.00
57038;BME280;59942;49.304;8.256;2023-11-21T04:23:44;99786.44;;;8.47;100.00
57038;BME280;59942;49.304;8.256;2023-11-21T04:26:15;99781.28;;;8.47;100.00
57038;BME280;59942;49.304;8.256;2023-11-21T04:28:44;99788.75;;;8.54;100.00
57038;BME280;59942;49.304;8.256;2023-11-21T04:31:11;99787.72;;;8.58;100.00
57038;BME280;59942;49.304;8.256;2023-11-21T04:33:37;99792.34;;;8.51;100.00
57038;BME280;59942;49.304;8.256;2023-11-21T04:36:06;99796.19;;;8.41;100.00
57038;BME280;59942;49.304;8.256;2023-11-21T04:38:33;99792.63;;;8.43;100.00
57038;BME280;59942;49.304;8.256;2023-11-21T04:41:02;99790.97;;;8.42;100.00
57038;BME280;59942;49.304;8.256;2023-11-21T04:43:29;99807.84;;;8.51;100.00
57038;BME280;59942;49.304;8.256;2023-11-21T04:45:56;99799.94;;;8.33;100.00
57038;BME280;59942;49.304;8.256;2023-11-21T04:48:27;99812.97;;;8.30;100.00
57038;BME280;59942;49.304;8.256;2023-11-21T04:50:54;99804.13;;;8.36;100.00
57038;BME280;59942;49.304;8.256;2023-11-21T04:53:23;99805.63;;;8.21;100.00
57038;BME280;59942;49.304;8.256;2023-11-21T04:55:50;99806.44;;;8.22;100.00
57038;BME280;59942;49.304;8.256;2023-11-21T04:58:17;99809.69;;;8.27;100.00
57038;BME280;59942;49.304;8.256;2023-11-21T05:00:47;99808.66;;;8.31;100.00
57038;BME280;59942;49.304;8.256;2023-11-21T05:03:16;99826.72;;;8.31;100.00
57038;BME280;59942;49.304;8.256;2023-11-21T05:05:43;99823.22;;;8.11;100.00
57038;BME280;59942;49.304;8.256;2023-11-21T05:08:10;99823.94;;;8.15;100.00
57038;BME280;59942;49.304;8.256;2023-11-21T05:10:36;99787.06;;;8.11;100.00
57038;BME280;59942;49.304;8.256;2023-11-21T05:13:05;99819.13;;;8.28;100.00
57038;BME280;59942;49.304;8.256;2023-11-21T05:15:36;99820.16;;;8.24;100.00
57038;BME280;59942;49.304;8.256;2023-11-21T05:18:04;99826.88;;;8.28;100.00
57038;BME280;59942;49.304;8.256;2023-11-21T05:20:31;99829.94;;;8.36;100.00
57038;BME280;59942;49.304;8.256;2023-11-21T05:22:59;99832.59;;;8.34;100.00
57038;BME280;59942;49.304;8.256;2023-11-21T05:25:28;99833.09;;;8.44;100.00
57038;BME280;59942;49.304;8.256;2023-11-21T05:27:57;99843.28;;;8.47;100.00
57038;BME280;59942;49.304;8.256;2023-11-21T05:30:27;99844.75;;;8.32;100.00
57038;BME280;59942;49.304;8.256;2023-11-21T05:32:56;99850.69;;;8.34;100.00
57038;BME280;59942;49.304;8.256;2023-11-21T05:35:23;99852.44;;;8.34;100.00
57038;BME280;59942;49.304;8.256;2023-11-21T05:37:49;99854.94;;;8.35;100.00
57038;BME280;59942;49.304;8.256;2023-11-21T05:40:18;99864.06;;;8.24;100.00
57038;BME280;59942;49.304;8.256;2023-11-21T05:42:45;99864.31;;;8.38;100.00
57038;BME280;59942;49.304;8.256;2023-11-21T05:45:11;99870.81;;;8.48;100.00
57038;BME280;59942;49.304;8.256;2023-11-21T05:47:43;99866.69;;;8.43;100.00
57038;BME280;59942;49.304;8.256;2023-11-21T05:50:15;99874.75;;;8.57;100.00
57038;BME280;59942;49.304;8.256;2023-11-21T05:52:44;99876.31;;;8.61;100.00
57038;BME280;59942;49.304;8.256;2023-11-21T05:55:11;99876.56;;;8.76;100.00
57038;BME280;59942;49.304;8.256;2023-11-21T05:57:39;99885.59;;;8.86;100.00
57038;BME280;59942;49.304;8.256;2023-11-21T06:00:07;99888.56;;;8.56;100.00
57038;BME280;59942;49.304;8.256;2023-11-21T06:02:44;99893.50;;;8.62;100.00
57038;BME280;59942;49.304;8.256;2023-11-21T06:05:14;99893.53;;;8.61;100.00
57038;BME280;59942;49.304;8.256;2023-11-21T06:07:40;99900.00;;;8.50;100.00
57038;BME280;59942;49.304;8.256;2023-11-21T06:10:08;99895.56;;;8.54;100.00
57038;BME280;59942;49.304;8.256;2023-11-21T06:12:37;99903.25;;;8.56;100.00
57038;BME280;59942;49.304;8.256;2023-11-21T06:15:04;99904.22;;;8.09;100.00
57038;BME280;59942;49.304;8.256;2023-11-21T06:17:34;99917.84;;;8.34;100.00
57038;BME280;59942;49.304;8.256;2023-11-21T06:20:06;99914.66;;;8.50;100.00
57038;BME280;59942;49.304;8.256;2023-11-21T06:22:45;99865.34;;;8.34;100.00
57038;BME280;59942;49.304;8.256;2023-11-21T06:25:14;99923.13;;;8.54;100.00
57038;BME280;59942;49.304;8.256;2023-11-21T06:27:45;99920.44;;;8.57;100.00
57038;BME280;59942;49.304;8.256;2023-11-21T06:30:12;99918.22;;;8.68;100.00
57038;BME280;59942;49.304;8.256;2023-11-21T06:32:42;99927.03;;;8.64;100.00
57038;BME280;59942;49.304;8.256;2023-11-21T06:35:17;99919.91;;;8.69;100.00
57038;BME280;59942;49.304;8.256;2023-11-21T06:37:44;99934.72;;;8.65;100.00
57038;BME280;59942;49.304;8.256;2023-11-21T06:40:15;99932.88;;;8.67;100.00
57038;BME280;59942;49.304;8.256;2023-11-21T06:42:44;99926.69;;;8.72;100.00
57038;BME280;59942;49.304;8.256;2023-11-21T06:45:13;99913.50;;;8.57;100.00
57038;BME280;59942;49.304;8.256;2023-11-21T06:47:41;99936.28;;;8.69;100.00
57038;BME280;59942;49.304;8.256;2023-11-21T06:50:08;99940.44;;;8.72;100.00
57038;BME280;59942;49.304;8.256;2023-11-21T06:52:35;99946.84;;;8.63;100.00
57038;BME280;59942;49.304;8.256;2023-11-21T06:55:01;99940.19;;;8.58;100.00
57038;BME280;59942;49.304;8.256;2023-11-21T06:57:28;99949.81;;;8.54;100.00
57038;BME280;59942;49.304;8.256;2023-11-21T06:59:54;99955.69;;;8.58;100.00
57038;BME280;59942;49.304;8.256;2023-11-21T07:02:26;99942.63;;;8.61;100.00
57038;BME280;59942;49.304;8.256;2023-11-21T07:04:52;99955.25;;;8.68;100.00
57038;BME280;59942;49.304;8.256;2023-11-21T07:07:19;99963.91;;;8.67;100.00
57038;BME280;59942;49.304;8.256;2023-11-21T07:09:46;99967.97;;;8.73;100.00
57038;BME280;59942;49.304;8.256;2023-11-21T07:12:14;99965.47;;;8.72;100.00
57038;BME280;59942;49.304;8.256;2023-11-21T07:14:40;99927.72;;;8.47;100.00
57038;BME280;59942;49.304;8.256;2023-11-21T07:17:11;99974.13;;;8.71;100.00
57038;BME280;59942;49.304;8.256;2023-11-21T07:19:38;99979.28;;;8.71;100.00
57038;BME280;59942;49.304;8.256;2023-11-21T07:22:05;99982.78;;;8.69;100.00
57038;BME280;59942;49.304;8.256;2023-11-21T07:24:32;99988.78;;;8.70;100.00
57038;BME280;59942;49.304;8.256;2023-11-21T07:26:59;99994.66;;;8.74;100.00
57038;BME280;59942;49.304;8.256;2023-11-21T07:29:25;99996.22;;;8.78;100.00
57038;BME280;59942;49.304;8.256;2023-11-21T07:31:56;100001.84;;;8.67;100.00
57038;BME280;59942;49.304;8.256;2023-11-21T07:34:22;100005.88;;;8.74;100.00
57038;BME280;59942;49.304;8.256;2023-11-21T07:36:49;100007.41;;;8.78;100.00
57038;BME280;59942;49.304;8.256;2023-11-21T07:39:18;100012.13;;;8.68;100.00
57038;BME280;59942;49.304;8.256;2023-11-21T07:41:47;100011.16;;;8.71;100.00
57038;BME280;59942;49.304;8.256;2023-11-21T07:44:18;100018.06;;;8.71;100.00
57038;BME280;59942;49.304;8.256;2023-11-21T07:46:48;100022.53;;;8.67;100.00
57038;BME280;59942;49.304;8.256;2023-11-21T07:49:16;100016.38;;;8.69;100.00
57038;BME280;59942;49.304;8.256;2023-11-21T07:51:46;100019.13;;;8.65;100.00
57038;BME280;59942;49.304;8.256;2023-11-21T07:54:13;100023.28;;;8.69;100.00
57038;BME280;59942;49.304;8.256;2023-11-21T07:56:39;100027.75;;;8.65;100.00
57038;BME280;59942;49.304;8.256;2023-11-21T07:59:06;100025.63;;;8.75;100.00
57038;BME280;59942;49.304;8.256;2023-11-21T08:01:32;100024.91;;;8.72;100.00
57038;BME280;59942;49.304;8.256;2023-11-21T08:03:59;100027.38;;;8.75;100.00
57038;BME280;59942;49.304;8.256;2023-11-21T08:06:30;100035.84;;;8.78;100.00
57038;BME280;59942;49.304;8.256;2023-11-21T08:08:59;100037.72;;;8.75;100.00
57038;BME280;59942;49.304;8.256;2023-11-21T08:11:30;100041.19;;;8.74;100.00
57038;BME280;59942;49.304;8.256;2023-11-21T08:13:58;100041.91;;;8.77;100.00
57038;BME280;59942;49.304;8.256;2023-11-21T08:16:26;100049.34;;;8.85;100.00
57038;BME280;59942;49.304;8.256;2023-11-21T08:18:54;100049.22;;;8.88;100.00
57038;BME280;59942;49.304;8.256;2023-11-21T08:21:20;100055.06;;;8.93;100.00
57038;BME280;59942;49.304;8.256;2023-11-21T08:23:47;100008.22;;;8.58;100.00
57038;BME280;59942;49.304;8.256;2023-11-21T08:26:22;100031.03;;;8.69;100.00
57038;BME280;59942;49.304;8.256;2023-11-21T08:28:49;100042.81;;;8.76;100.00
57038;BME280;59942;49.304;8.256;2023-11-21T08:31:24;100011.03;;;8.52;100.00
57038;BME280;59942;49.304;8.256;2023-11-21T08:33:51;100056.63;;;8.75;100.00
57038;BME280;59942;49.304;8.256;2023-11-21T08:36:22;100065.94;;;8.79;100.00
57038;BME280;59942;49.304;8.256;2023-11-21T08:38:51;100068.53;;;8.79;100.00
57038;BME280;59942;49.304;8.256;2023-11-21T08:41:18;100072.88;;;8.79;100.00
57038;BME280;59942;49.304;8.256;2023-11-21T08:43:49;100073.34;;;8.89;100.00
57038;BME280;59942;49.304;8.256;2023-11-21T08:46:16;100076.38;;;8.98;100.00
57038;BME280;59942;49.304;8.256;2023-11-21T08:48:46;100076.38;;;8.98;100.00
57038;BME280;59942;49.304;8.256;2023-11-21T08:51:15;100073.88;;;8.97;100.00
57038;BME280;59942;49.304;8.256;2023-11-21T08:53:44;100079.41;;;8.88;100.00
57038;BME280;59942;49.304;8.256;2023-11-21T08:56:13;100077.66;;;8.88;100.00
57038;BME280;59942;49.304;8.256;2023-11-21T08:58:43;100077.44;;;8.94;100.00
57038;BME280;59942;49.304;8.256;2023-11-21T09:01:09;100092.16;;;8.92;100.00
57038;BME280;59942;49.304;8.256;2023-11-21T09:03:41;100098.41;;;9.09;100.00
57038;BME280;59942;49.304;8.256;2023-11-21T09:06:07;100093.47;;;9.02;100.00
57038;BME280;59942;49.304;8.256;2023-11-21T09:08:38;100093.81;;;9.15;100.00
57038;BME280;59942;49.304;8.256;2023-11-21T09:11:05;100104.22;;;9.14;100.00
57038;BME280;59942;49.304;8.256;2023-11-21T09:13:36;100094.75;;;9.13;100.00
57038;BME280;59942;49.304;8.256;2023-11-21T09:16:05;100101.06;;;9.28;100.00
57038;BME280;59942;49.304;8.256;2023-11-21T09:18:32;100110.00;;;9.20;100.00
57038;BME280;59942;49.304;8.256;2023-11-21T09:21:03;100115.78;;;9.26;100.00
57038;BME280;59942;49.304;8.256;2023-11-21T09:23:30;100115.69;;;9.29;100.00
57038;BME280;59942;49.304;8.256;2023-11-21T09:25:57;100117.63;;;9.24;100.00
57038;BME280;59942;49.304;8.256;2023-11-21T09:28:26;100117.94;;;9.16;100.00
57038;BME280;59942;49.304;8.256;2023-11-21T09:30:56;100130.75;;;9.19;100.00
57038;BME280;59942;49.304;8.256;2023-11-21T09:33:22;100123.53;;;9.05;100.00
57038;BME280;59942;49.304;8.256;2023-11-21T09:35:51;100129.44;;;9.09;100.00
57038;BME280;59942;49.304;8.256;2023-11-21T09:38:20;100134.78;;;9.04;100.00
57038;BME280;59942;49.304;8.256;2023-11-21T09:40:47;100139.94;;;9.04;100.00
57038;BME280;59942;49.304;8.256;2023-11-21T09:43:17;100135.44;;;9.09;100.00
57038;BME280;59942;49.304;8.256;2023-11-21T09:45:51;100138.56;;;9.17;100.00
57038;BME280;59942;49.304;8.256;2023-11-21T09:48:26;100133.69;;;9.10;100.00
57038;BME280;59942;49.304;8.256;2023-11-21T09:50:53;100139.00;;;9.07;100.00
57038;BME280;59942;49.304;8.256;2023-11-21T09:53:21;100147.13;;;8.97;100.00
57038;BME280;59942;49.304;8.256;2023-11-21T09:55:51;100150.19;;;9.07;100.00
57038;BME280;59942;49.304;8.256;2023-11-21T09:58:19;100154.44;;;9.08;100.00
57038;BME280;59942;49.304;8.256;2023-11-21T10:00:53;100157.22;;;9.03;100.00
57038;BME280;59942;49.304;8.256;2023-11-21T10:03:27;100163.91;;;9.09;100.00
57038;BME280;59942;49.304;8.256;2023-11-21T10:05:57;100159.69;;;9.07;100.00
57038;BME280;59942;49.304;8.256;2023-11-21T10:08:27;100158.91;;;9.04;100.00
57038;BME280;59942;49.304;8.256;2023-11-21T10:11:19;100108.75;;;8.64;100.00
57038;BME280;59942;49.304;8.256;2023-11-21T10:13:49;100163.44;;;9.20;100.00
57038;BME280;59942;49.304;8.256;2023-11-21T10:16:20;100164.66;;;9.11;100.00
57038;BME280;59942;49.304;8.256;2023-11-21T10:18:52;100177.06;;;9.25;100.00
57038;BME280;59942;49.304;8.256;2023-11-21T10:21:38;100149.50;;;9.24;100.00
57038;BME280;59942;49.304;8.256;2023-11-21T10:24:05;100174.88;;;9.36;100.00
57038;BME280;59942;49.304;8.256;2023-11-21T10:26:33;100156.09;;;9.31;100.00
57038;BME280;59942;49.304;8.256;2023-11-21T10:29:16;100169.63;;;9.38;100.00
57038;BME280;59942;49.304;8.256;2023-11-21T10:31:45;100169.44;;;9.43;100.00
57038;BME280;59942;49.304;8.256;2023-11-21T10:34:21;100170.09;;;9.48;100.00
57038;BME280;59942;49.304;8.256;2023-11-21T10:36:48;100174.56;;;9.44;100.00
57038;BME280;59942;49.304;8.256;2023-11-21T10:39:19;100163.25;;;9.47;100.00
57038;BME280;59942;49.304;8.256;2023-11-21T10:41:49;100176.78;;;9.53;100.00
57038;BME280;59942;49.304;8.256;2023-11-21T10:44:18;100171.13;;;9.44;100.00
57038;BME280;59942;49.304;8.256;2023-11-21T10:46:54;100142.53;;;9.26;100.00
57038;BME280;59942;49.304;8.256;2023-11-21T10:49:27;100181.69;;;9.39;100.00
57038;BME280;59942;49.304;8.256;2023-11-21T10:51:54;100192.66;;;9.44;100.00
57038;BME280;59942;49.304;8.256;2023-11-21T10:54:24;100202.53;;;9.34;100.00
57038;BME280;59942;49.304;8.256;2023-11-21T10:56:59;100200.25;;;9.49;100.00
57038;BME280;59942;49.304;8.256;2023-11-21T10:59:30;100191.16;;;9.38;100.00
57038;BME280;59942;49.304;8.256;2023-11-21T11:02:05;100144.78;;;9.13;100.00
57038;BME280;59942;49.304;8.256;2023-11-21T11:04:36;100202.00;;;9.48;100.00
57038;BME280;59942;49.304;8.256;2023-11-21T11:07:08;100185.16;;;9.38;100.00
57038;BME280;59942;49.304;8.256;2023-11-21T11:09:38;100191.84;;;9.44;100.00
57038;BME280;59942;49.304;8.256;2023-11-21T11:12:10;100196.00;;;9.48;100.00
57038;BME280;59942;49.304;8.256;2023-11-21T11:14:40;100185.34;;;9.33;100.00
57038;BME280;59942;49.304;8.256;2023-11-21T11:17:11;100199.19;;;9.32;100.00
57038;BME280;59942;49.304;8.256;2023-11-21T11:19:39;100207.72;;;9.34;100.00
57038;BME280;59942;49.304;8.256;2023-11-21T11:30:28;100206.69;;;9.38;100.00
57038;BME280;59942;49.304;8.256;2023-11-21T11:33:25;100186.13;;;9.35;100.00
57038;BME280;59942;49.304;8.256;2023-11-21T11:36:06;100187.88;;;9.35;100.00
57038;BME280;59942;49.304;8.256;2023-11-21T11:38:37;100201.09;;;9.49;100.00
57038;BME280;59942;49.304;8.256;2023-11-21T11:41:06;100202.78;;;9.28;100.00
57038;BME280;59942;49.304;8.256;2023-11-21T11:43:35;100201.59;;;9.37;100.00
57038;BME280;59942;49.304;8.256;2023-11-21T11:46:11;100203.81;;;9.46;100.00
57038;BME280;59942;49.304;8.256;2023-11-21T11:48:41;100200.44;;;9.44;100.00
57038;BME280;59942;49.304;8.256;2023-11-21T11:51:15;100209.88;;;9.45;100.00
57038;BME280;59942;49.304;8.256;2023-11-21T11:53:47;100170.91;;;9.28;100.00
57038;BME280;59942;49.304;8.256;2023-11-21T11:58:55;100168.28;;;9.29;100.00
57038;BME280;59942;49.304;8.256;2023-11-21T12:01:24;100219.97;;;9.51;100.00
57038;BME280;59942;49.304;8.256;2023-11-21T12:06:43;100214.00;;;9.71;100.00
57038;BME280;59942;49.304;8.256;2023-11-21T12:09:22;100215.63;;;9.74;100.00
57038;BME280;59942;49.304;8.256;2023-11-21T12:11:52;100209.22;;;9.83;100.00
57038;BME280;59942;49.304;8.256;2023-11-21T12:14:23;100207.97;;;9.91;100.00
57038;BME280;59942;49.304;8.256;2023-11-21T12:16:50;100209.22;;;9.83;100.00
57038;BME280;59942;49.304;8.256;2023-11-21T12:19:22;100208.38;;;9.82;100.00
57038;BME280;59942;49.304;8.256;2023-11-21T12:21:49;100213.03;;;9.31;100.00
57038;BME280;59942;49.304;8.256;2023-11-21T12:24:16;100217.59;;;9.67;100.00
57038;BME280;59942;49.304;8.256;2023-11-21T12:26:43;100216.97;;;9.83;100.00
57038;BME280;59942;49.304;8.256;2023-11-21T12:29:10;100212.63;;;9.83;100.00
57038;BME280;59942;49.304;8.256;2023-11-21T12:31:39;100218.59;;;10.06;100.00
57038;BME280;59942;49.304;8.256;2023-11-21T12:34:07;100210.22;;;9.99;100.00
57038;BME280;59942;49.304;8.256;2023-11-21T12:36:35;100226.28;;;10.07;100.00
57038;BME280;59942;49.304;8.256;2023-11-21T12:39:05;100222.97;;;10.24;100.00
57038;BME280;59942;49.304;8.256;2023-11-21T12:41:32;100229.47;;;10.14;100.00
57038;BME280;59942;49.304;8.256;2023-11-21T12:43:58;100230.97;;;10.20;100.00
57038;BME280;59942;49.304;8.256;2023-11-21T12:46:25;100235.13;;;10.22;100.00
57038;BME280;59942;49.304;8.256;2023-11-21T12:48:56;100239.34;;;10.25;100.00
57038;BME280;59942;49.304;8.256;2023-11-21T12:51:24;100235.63;;;10.12;100.00
57038;BME280;59942;49.304;8.256;2023-11-21T12:53:51;100240.25;;;10.24;100.00
57038;BME280;59942;49.304;8.256;2023-11-21T12:56:21;100187.38;;;10.09;100.00
57038;BME280;59942;49.304;8.256;2023-11-21T12:58:49;100247.13;;;10.25;100.00
57038;BME280;59942;49.304;8.256;2023-11-21T13:01:18;100241.59;;;10.34;100.00
57038;BME280;59942;49.304;8.256;2023-11-21T13:03:48;100240.81;;;10.51;100.00
57038;BME280;59942;49.304;8.256;2023-11-21T13:06:18;100236.34;;;10.36;100.00
57038;BME280;59942;49.304;8.256;2023-11-21T13:08:51;100239.63;;;10.19;100.00
57038;BME280;59942;49.304;8.256;2023-11-21T13:11:20;100244.75;;;10.20;100.00
57038;BME280;59942;49.304;8.256;2023-11-21T13:13:51;100240.97;;;10.67;100.00
57038;BME280;59942;49.304;8.256;2023-11-21T13:16:24;100245.78;;;10.16;100.00
57038;BME280;59942;49.304;8.256;2023-11-21T13:18:53;100247.72;;;10.32;100.00
57038;BME280;59942;49.304;8.256;2023-11-21T13:21:20;100263.00;;;10.17;100.00